Time;durP1;ratioP1;P1;durP2;ratioP2;P2;SDS_P1;SDS_P2;PMS_P1;PMS_P2;Temp;Humidity;BMP_temperature;BMP_pressure;BME280_temperature;BME280_humidity;BME280_pressure;Samples;Min_cycle;Max_cycle;Signal;HPM_P1;HPM_P2
2023/02/10 00:02:21;;;;;;;82.57;36.03;;;;;;;;;;5022522;28;20202;-67
2023/02/10 00:04:47;;;;;;;82.07;36.37;;;;;;;;;;5041225;28;20262;-67
2023/02/10 00:07:12;;;;;;;79.30;35.13;;;;;;;;;;5041694;28;20210;-67
2023/02/10 00:09:38;;;;;;;84.00;35.53;;;;;;;;;;5043893;28;20189;-67
2023/02/10 00:12:03;;;;;;;77.97;34.93;;;;;;;;;;5038392;28;20542;-67
2023/02/10 00:14:30;;;;;;;83.53;33.93;;;;;;;;;;5037064;28;20189;-67
2023/02/10 00:16:56;;;;;;;83.27;35.70;;;;;;;;;;5029106;28;20269;-67
2023/02/10 00:19:24;;;;;;;78.37;34.80;;;;;;;;;;5033990;28;20190;-66
2023/02/10 00:21:50;;;;;;;81.30;36.90;;;;;;;;;;5022045;28;22537;-66
2023/02/10 00:24:16;;;;;;;76.40;35.53;;;;;;;;;;5029534;28;20715;-66
2023/02/10 00:26:42;;;;;;;92.33;35.87;;;;;;;;;;5029786;28;20209;-66
2023/02/10 00:29:07;;;;;;;83.23;35.90;;;;;;;;;;5030983;28;20659;-67
2023/02/10 00:31:32;;;;;;;80.50;35.60;;;;;;;;;;5015447;28;20194;-67
2023/02/10 00:33:58;;;;;;;80.27;35.30;;;;;;;;;;5031560;28;20621;-67
2023/02/10 00:36:24;;;;;;;78.40;34.80;;;;;;;;;;5042963;28;20229;-66
2023/02/10 00:38:50;;;;;;;86.27;35.93;;;;;;;;;;5036995;28;20210;-66
2023/02/10 00:41:18;;;;;;;91.73;35.80;;;;;;;;;;5040551;28;20189;-66
2023/02/10 00:43:44;;;;;;;76.53;34.80;;;;;;;;;;5042395;28;20198;-67
2023/02/10 00:46:11;;;;;;;77.07;34.70;;;;;;;;;;5037821;28;20204;-66
2023/02/10 00:48:37;;;;;;;90.17;36.73;;;;;;;;;;5023726;28;20224;-66
2023/02/10 00:51:03;;;;;;;83.73;36.83;;;;;;;;;;5028048;28;20258;-66
2023/02/10 00:53:29;;;;;;;85.07;36.27;;;;;;;;;;5016860;28;20278;-67
2023/02/10 00:55:55;;;;;;;88.13;36.97;;;;;;;;;;5039017;28;20276;-67
2023/02/10 00:58:20;;;;;;;88.17;36.87;;;;;;;;;;5021522;28;20196;-67
2023/02/10 01:00:47;;;;;;;90.83;37.07;;;;;;;;;;5026996;28;20206;-67
2023/02/10 01:03:12;;;;;;;87.80;38.33;;;;;;;;;;5028678;28;20289;-67
2023/02/10 01:05:38;;;;;;;89.43;37.90;;;;;;;;;;5037387;28;20273;-67
2023/02/10 01:08:03;;;;;;;81.70;37.73;;;;;;;;;;5035737;28;20592;-66
2023/02/10 01:10:29;;;;;;;85.43;37.60;;;;;;;;;;5033600;28;20193;-66
2023/02/10 01:12:54;;;;;;;90.37;37.43;;;;;;;;;;5031060;28;20192;-66
2023/02/10 01:15:19;;;;;;;84.17;37.17;;;;;;;;;;5028419;28;20634;-67
2023/02/10 01:17:45;;;;;;;88.77;36.50;;;;;;;;;;5019111;28;20178;-66
2023/02/10 01:20:10;;;;;;;83.83;35.53;;;;;;;;;;5028061;28;20304;-66
2023/02/10 01:22:36;;;;;;;86.93;37.03;;;;;;;;;;5026232;28;20650;-66
2023/02/10 01:25:02;;;;;;;88.87;36.97;;;;;;;;;;5038751;28;20602;-66
2023/02/10 01:27:28;;;;;;;90.17;36.97;;;;;;;;;;5037730;28;20247;-67
2023/02/10 01:29:53;;;;;;;93.47;37.57;;;;;;;;;;5030634;28;20196;-66
2023/02/10 01:32:19;;;;;;;86.50;36.23;;;;;;;;;;5025701;28;20274;-66
2023/02/10 01:34:44;;;;;;;86.73;36.93;;;;;;;;;;5031874;28;20312;-66
2023/02/10 01:37:10;;;;;;;100.63;38.03;;;;;;;;;;5026030;28;20222;-69
2023/02/10 01:39:35;;;;;;;83.60;36.13;;;;;;;;;;5026388;28;20182;-67
2023/02/10 01:42:01;;;;;;;84.20;37.20;;;;;;;;;;5032410;28;20762;-67
2023/02/10 01:44:27;;;;;;;89.63;38.13;;;;;;;;;;5030235;28;20190;-65
2023/02/10 01:46:53;;;;;;;94.27;38.40;;;;;;;;;;5020923;28;20314;-66
2023/02/10 01:49:23;;;;;;;101.20;37.67;;;;;;;;;;5025482;28;20638;-67
2023/02/10 01:51:58;;;;;;;97.57;38.73;;;;;;;;;;5030288;28;20186;-67
2023/02/10 01:54:36;;;;;;;95.40;38.47;;;;;;;;;;5022897;28;20182;-66
2023/02/10 01:57:02;;;;;;;93.30;37.23;;;;;;;;;;5034424;28;20196;-67
2023/02/10 01:59:31;;;;;;;92.23;37.83;;;;;;;;;;5049216;28;20509;-66
2023/02/10 02:01:57;;;;;;;86.57;36.77;;;;;;;;;;5024877;28;20239;-67
2023/02/10 02:04:23;;;;;;;85.97;37.17;;;;;;;;;;5028776;28;20602;-66
2023/02/10 02:06:49;;;;;;;94.80;38.63;;;;;;;;;;5031148;28;20317;-66
2023/02/10 02:09:14;;;;;;;93.07;36.83;;;;;;;;;;5030065;28;20286;-66
2023/02/10 02:11:46;;;;;;;94.17;38.43;;;;;;;;;;5022354;28;20193;-66
2023/02/10 02:14:33;;;;;;;87.87;38.07;;;;;;;;;;5018079;28;20179;-66
2023/02/10 02:17:07;;;;;;;85.43;35.03;;;;;;;;;;5025534;28;20182;-66
2023/02/10 02:19:47;;;;;;;90.03;34.67;;;;;;;;;;5021059;28;20182;-66
2023/02/10 02:22:38;;;;;;;87.10;36.50;;;;;;;;;;5028570;28;20513;-66
2023/02/10 02:25:24;;;;;;;83.37;35.87;;;;;;;;;;5021583;28;20272;-66
2023/02/10 02:27:55;;;;;;;81.23;35.43;;;;;;;;;;5028842;28;20471;-66
2023/02/10 02:30:23;;;;;;;81.97;36.67;;;;;;;;;;5030672;28;20205;-66
2023/02/10 02:32:54;;;;;;;85.53;35.63;;;;;;;;;;5034670;28;20189;-66
2023/02/10 02:35:27;;;;;;;85.60;36.13;;;;;;;;;;5035246;28;20234;-66
2023/02/10 02:37:54;;;;;;;87.70;37.17;;;;;;;;;;5029305;28;20183;-66
2023/02/10 02:40:20;;;;;;;83.37;37.03;;;;;;;;;;5021355;28;20647;-66
2023/02/10 02:42:46;;;;;;;84.07;35.90;;;;;;;;;;5025577;28;20196;-67
2023/02/10 02:45:21;;;;;;;81.00;36.47;;;;;;;;;;5021093;28;20194;-66
2023/02/10 02:47:59;;;;;;;101.30;38.57;;;;;;;;;;5027025;28;20216;-66
2023/02/10 02:50:35;;;;;;;81.37;36.67;;;;;;;;;;5031136;28;20194;-66
2023/02/10 02:53:25;;;;;;;94.97;38.63;;;;;;;;;;5026665;28;20265;-67
2023/02/10 02:56:03;;;;;;;87.07;36.90;;;;;;;;;;5045111;28;20193;-66
2023/02/10 02:58:37;;;;;;;82.73;35.83;;;;;;;;;;5038432;28;20656;-66
2023/02/10 03:01:10;;;;;;;93.83;37.53;;;;;;;;;;5042833;28;20212;-66
2023/02/10 03:03:36;;;;;;;83.10;36.03;;;;;;;;;;5040255;28;20267;-67
2023/02/10 03:06:02;;;;;;;89.97;37.40;;;;;;;;;;5034036;28;20493;-67
2023/02/10 03:08:30;;;;;;;94.77;39.30;;;;;;;;;;5043567;28;20217;-67
2023/02/10 03:10:56;;;;;;;87.83;38.20;;;;;;;;;;5035024;28;20269;-67
2023/02/10 03:13:21;;;;;;;92.97;38.17;;;;;;;;;;5041809;28;20625;-67
2023/02/10 03:15:47;;;;;;;85.83;37.43;;;;;;;;;;5040210;28;20182;-67
2023/02/10 03:18:12;;;;;;;91.47;37.93;;;;;;;;;;5031369;28;20272;-67
2023/02/10 03:20:39;;;;;;;83.23;36.27;;;;;;;;;;5028252;28;20228;-67
2023/02/10 03:23:04;;;;;;;88.37;38.47;;;;;;;;;;5032687;28;20201;-67
2023/02/10 03:25:30;;;;;;;98.20;38.33;;;;;;;;;;5030938;28;20190;-66
2023/02/10 03:27:55;;;;;;;84.70;37.00;;;;;;;;;;5034175;28;20206;-67
2023/02/10 03:30:21;;;;;;;90.53;37.63;;;;;;;;;;5026880;28;20199;-67
2023/02/10 03:32:48;;;;;;;97.27;38.70;;;;;;;;;;5016356;28;20182;-67
2023/02/10 03:35:14;;;;;;;89.43;38.70;;;;;;;;;;5025709;28;20230;-67
2023/02/10 03:37:39;;;;;;;97.47;37.80;;;;;;;;;;5029659;28;20703;-67
2023/02/10 03:40:05;;;;;;;84.17;36.43;;;;;;;;;;5029786;28;20604;-67
2023/02/10 03:42:31;;;;;;;84.70;35.77;;;;;;;;;;5028535;28;20198;-67
2023/02/10 03:44:56;;;;;;;87.97;38.13;;;;;;;;;;5030159;28;20248;-67
2023/02/10 03:47:21;;;;;;;91.33;37.97;;;;;;;;;;5028401;28;20672;-67
2023/02/10 03:49:47;;;;;;;88.33;38.47;;;;;;;;;;5024282;28;20226;-67
2023/02/10 03:52:12;;;;;;;87.70;36.97;;;;;;;;;;5021942;28;20198;-67
2023/02/10 03:54:38;;;;;;;84.50;38.07;;;;;;;;;;5029310;28;20185;-67
2023/02/10 03:57:05;;;;;;;84.17;36.57;;;;;;;;;;5025328;28;20178;-68
2023/02/10 03:59:30;;;;;;;79.50;35.47;;;;;;;;;;5026623;28;20182;-67
2023/02/10 04:01:56;;;;;;;83.13;36.20;;;;;;;;;;5027670;28;20606;-67
2023/02/10 04:04:21;;;;;;;82.63;36.47;;;;;;;;;;5027712;28;20257;-67
2023/02/10 04:06:47;;;;;;;82.33;35.07;;;;;;;;;;5026191;28;20557;-67
2023/02/10 04:09:12;;;;;;;84.93;35.70;;;;;;;;;;5025359;28;20190;-67
2023/02/10 04:11:38;;;;;;;81.23;35.60;;;;;;;;;;5028250;28;20248;-67
2023/02/10 04:14:03;;;;;;;83.37;34.47;;;;;;;;;;5031593;28;20221;-67
2023/02/10 04:16:29;;;;;;;87.23;35.80;;;;;;;;;;5034076;28;20202;-67
2023/02/10 04:18:55;;;;;;;81.87;34.00;;;;;;;;;;5022450;28;20641;-67
2023/02/10 04:21:20;;;;;;;70.07;32.63;;;;;;;;;;5037267;28;20242;-67
2023/02/10 04:23:46;;;;;;;69.67;31.30;;;;;;;;;;5033344;28;20209;-67
2023/02/10 04:26:11;;;;;;;75.47;33.20;;;;;;;;;;5042898;28;20186;-67
2023/02/10 04:28:36;;;;;;;72.87;32.17;;;;;;;;;;5016514;28;20742;-68
2023/02/10 04:31:02;;;;;;;67.43;31.00;;;;;;;;;;5037420;28;20673;-66
2023/02/10 04:33:29;;;;;;;65.57;30.73;;;;;;;;;;5026059;28;20298;-67
2023/02/10 04:35:55;;;;;;;64.67;29.57;;;;;;;;;;5038342;28;20217;-66
2023/02/10 04:38:21;;;;;;;66.90;32.03;;;;;;;;;;5038255;28;20702;-66
2023/02/10 04:40:47;;;;;;;62.63;30.33;;;;;;;;;;5025405;28;20206;-66
2023/02/10 04:43:13;;;;;;;60.50;29.93;;;;;;;;;;5028179;28;20206;-66
2023/02/10 04:45:39;;;;;;;62.07;29.33;;;;;;;;;;5037100;28;20617;-66
2023/02/10 04:48:04;;;;;;;63.80;28.87;;;;;;;;;;5037428;28;20217;-66
2023/02/10 04:50:30;;;;;;;62.73;29.93;;;;;;;;;;5044959;28;20507;-66
2023/02/10 04:52:55;;;;;;;58.50;28.97;;;;;;;;;;5031100;28;20591;-66
2023/02/10 04:55:20;;;;;;;57.03;28.23;;;;;;;;;;5035076;28;20682;-66
2023/02/10 04:57:46;;;;;;;56.53;28.20;;;;;;;;;;5032647;28;20186;-66
2023/02/10 05:00:12;;;;;;;61.80;28.83;;;;;;;;;;5043303;28;20209;-66
2023/02/10 05:02:38;;;;;;;57.33;27.03;;;;;;;;;;5026924;28;20205;-66
2023/02/10 05:05:04;;;;;;;54.93;26.83;;;;;;;;;;5026085;28;20642;-66
2023/02/10 05:07:30;;;;;;;59.77;28.93;;;;;;;;;;5029195;28;20231;-66
2023/02/10 05:09:55;;;;;;;56.67;27.03;;;;;;;;;;5025340;28;20198;-66
2023/02/10 05:12:20;;;;;;;63.13;28.43;;;;;;;;;;5027167;28;20195;-66
2023/02/10 05:14:46;;;;;;;55.30;26.97;;;;;;;;;;5043921;28;20193;-66
2023/02/10 05:17:11;;;;;;;59.83;29.03;;;;;;;;;;5039136;28;20269;-66
2023/02/10 05:19:37;;;;;;;51.93;26.53;;;;;;;;;;5038658;28;20666;-66
2023/02/10 05:22:02;;;;;;;54.13;26.73;;;;;;;;;;5042680;28;20204;-67
2023/02/10 05:24:27;;;;;;;61.40;27.50;;;;;;;;;;5037613;28;20229;-66
2023/02/10 05:26:53;;;;;;;60.97;27.13;;;;;;;;;;5046660;28;20528;-65
2023/02/10 05:29:18;;;;;;;54.17;27.50;;;;;;;;;;5027066;28;20542;-66
2023/02/10 05:31:44;;;;;;;58.43;27.40;;;;;;;;;;5027506;28;20239;-66
2023/02/10 05:34:09;;;;;;;60.40;27.63;;;;;;;;;;5035594;28;20213;-66
2023/02/10 05:36:35;;;;;;;63.17;28.03;;;;;;;;;;5035277;28;20240;-66
2023/02/10 05:41:44;;;;;;;63.60;29.03;;;;;;;;;;5027990;28;20224;-67
2023/02/10 05:44:09;;;;;;;64.03;29.43;;;;;;;;;;5038102;28;20217;-66
2023/02/10 05:46:35;;;;;;;70.00;30.50;;;;;;;;;;5041313;28;20185;-66
2023/02/10 05:49:00;;;;;;;72.60;29.60;;;;;;;;;;5040957;28;20193;-67
2023/02/10 05:51:26;;;;;;;71.03;29.10;;;;;;;;;;5039000;28;20220;-66
2023/02/10 05:53:51;;;;;;;72.77;32.17;;;;;;;;;;5035002;28;20198;-67
2023/02/10 05:56:17;;;;;;;77.57;32.80;;;;;;;;;;5027035;28;20194;-67
2023/02/10 05:58:42;;;;;;;77.43;30.37;;;;;;;;;;5028568;28;20203;-67
2023/02/10 06:01:09;;;;;;;83.90;33.50;;;;;;;;;;5032732;28;20218;-66
2023/02/10 06:03:34;;;;;;;79.47;32.67;;;;;;;;;;5023424;28;20187;-67
2023/02/10 06:06:00;;;;;;;83.07;32.37;;;;;;;;;;5032376;28;20617;-66
2023/02/10 06:08:25;;;;;;;102.93;35.07;;;;;;;;;;5025610;28;20213;-67
2023/02/10 06:10:51;;;;;;;97.37;33.73;;;;;;;;;;5029111;28;20178;-66
2023/02/10 06:13:17;;;;;;;105.87;34.93;;;;;;;;;;5024729;28;20277;-66
2023/02/10 06:15:42;;;;;;;117.83;39.70;;;;;;;;;;5025744;28;20253;-67
2023/02/10 06:18:08;;;;;;;141.33;37.60;;;;;;;;;;5040580;28;20668;-68
2023/02/10 06:20:33;;;;;;;84.63;32.47;;;;;;;;;;5029737;28;20258;-67
2023/02/10 06:22:58;;;;;;;150.07;39.13;;;;;;;;;;5026794;28;20266;-67
2023/02/10 06:25:24;;;;;;;120.77;38.03;;;;;;;;;;5033277;28;20699;-66
2023/02/10 06:27:49;;;;;;;135.00;36.27;;;;;;;;;;5031915;28;20240;-67
2023/02/10 06:30:15;;;;;;;111.13;37.77;;;;;;;;;;5037503;28;20562;-68
2023/02/10 06:32:40;;;;;;;117.63;37.17;;;;;;;;;;5032834;28;20193;-67
2023/02/10 06:35:06;;;;;;;113.77;38.93;;;;;;;;;;5025483;28;20685;-67
2023/02/10 06:37:31;;;;;;;116.20;38.17;;;;;;;;;;5021615;28;20189;-68
2023/02/10 06:39:57;;;;;;;122.93;38.03;;;;;;;;;;5028818;28;20558;-67
2023/02/10 06:42:22;;;;;;;123.23;40.00;;;;;;;;;;5020248;28;20192;-68
2023/02/10 06:44:48;;;;;;;99.00;37.60;;;;;;;;;;5028077;28;20182;-67
2023/02/10 06:47:13;;;;;;;146.17;41.67;;;;;;;;;;5025050;28;20214;-67
2023/02/10 06:49:38;;;;;;;114.80;38.10;;;;;;;;;;5030182;28;20227;-67
2023/02/10 06:52:04;;;;;;;141.47;41.20;;;;;;;;;;5042006;28;20202;-67
2023/02/10 06:54:29;;;;;;;128.80;40.47;;;;;;;;;;5043442;28;20677;-67
2023/02/10 06:56:55;;;;;;;139.27;40.90;;;;;;;;;;5036915;28;20190;-67
2023/02/10 06:59:20;;;;;;;120.20;38.77;;;;;;;;;;5029676;28;20557;-67
2023/02/10 07:01:47;;;;;;;133.60;39.97;;;;;;;;;;5039826;28;20209;-67
2023/02/10 07:04:12;;;;;;;92.00;37.63;;;;;;;;;;5024179;28;21187;-69
2023/02/10 07:06:38;;;;;;;125.93;42.30;;;;;;;;;;5033406;28;20187;-67
2023/02/10 07:09:04;;;;;;;109.80;42.70;;;;;;;;;;5041249;28;20590;-67
2023/02/10 07:11:30;;;;;;;111.37;39.27;;;;;;;;;;5038484;28;20227;-67
2023/02/10 07:13:56;;;;;;;128.80;43.50;;;;;;;;;;5042850;28;20182;-67
2023/02/10 07:16:22;;;;;;;101.57;40.30;;;;;;;;;;5037137;28;20278;-67
2023/02/10 07:18:47;;;;;;;116.70;42.80;;;;;;;;;;5042411;28;20187;-68
2023/02/10 07:21:12;;;;;;;115.87;42.33;;;;;;;;;;5033790;28;20649;-67
2023/02/10 07:23:38;;;;;;;103.87;41.07;;;;;;;;;;5031643;28;20198;-67
2023/02/10 07:26:06;;;;;;;100.17;40.90;;;;;;;;;;5032567;28;20264;-67
2023/02/10 07:28:32;;;;;;;105.07;42.00;;;;;;;;;;5025997;28;20221;-67
2023/02/10 07:30:58;;;;;;;96.70;39.07;;;;;;;;;;5026654;28;20264;-67
2023/02/10 07:33:23;;;;;;;97.13;38.63;;;;;;;;;;5027488;28;20185;-67
2023/02/10 07:35:49;;;;;;;111.57;42.90;;;;;;;;;;5037815;28;20696;-67
2023/02/10 07:38:15;;;;;;;108.67;43.80;;;;;;;;;;5024697;28;20224;-67
2023/02/10 07:40:40;;;;;;;100.70;42.30;;;;;;;;;;5025872;28;20247;-67
2023/02/10 07:43:05;;;;;;;108.57;41.47;;;;;;;;;;5035470;28;20657;-67
2023/02/10 07:45:31;;;;;;;107.83;42.20;;;;;;;;;;5025933;28;20259;-67
2023/02/10 07:47:57;;;;;;;97.20;41.47;;;;;;;;;;5044662;28;20467;-67
2023/02/10 07:50:23;;;;;;;110.17;43.03;;;;;;;;;;5044531;28;20188;-67
2023/02/10 07:52:49;;;;;;;105.40;42.47;;;;;;;;;;5036128;28;20189;-67
2023/02/10 07:55:14;;;;;;;107.80;42.67;;;;;;;;;;5026528;28;20186;-67
2023/02/10 07:57:41;;;;;;;112.10;44.03;;;;;;;;;;5014099;28;20233;-67
2023/02/10 08:00:08;;;;;;;119.10;46.30;;;;;;;;;;5014380;28;20230;-67
2023/02/10 08:02:33;;;;;;;113.40;47.20;;;;;;;;;;5021285;28;20221;-67
2023/02/10 08:04:59;;;;;;;121.73;47.20;;;;;;;;;;5019396;28;20630;-67
2023/02/10 08:07:25;;;;;;;114.37;46.63;;;;;;;;;;5023582;28;20203;-67
2023/02/10 08:09:50;;;;;;;116.83;47.20;;;;;;;;;;5023021;28;20634;-67
2023/02/10 08:12:16;;;;;;;119.37;47.33;;;;;;;;;;5016108;28;20195;-66
2023/02/10 08:14:41;;;;;;;111.43;45.77;;;;;;;;;;5012044;28;20658;-67
2023/02/10 08:17:06;;;;;;;115.60;46.37;;;;;;;;;;5013607;28;20611;-66
2023/02/10 08:19:32;;;;;;;104.60;46.10;;;;;;;;;;5023344;28;20203;-67
2023/02/10 08:21:57;;;;;;;112.17;44.27;;;;;;;;;;5022648;28;20693;-67
2023/02/10 08:24:23;;;;;;;128.10;48.50;;;;;;;;;;5024668;28;20186;-67
2023/02/10 08:26:48;;;;;;;108.63;44.80;;;;;;;;;;5018958;28;20850;-67
2023/02/10 08:29:14;;;;;;;120.33;46.03;;;;;;;;;;5017247;28;20186;-67
2023/02/10 08:31:39;;;;;;;119.17;47.23;;;;;;;;;;5022937;28;20274;-67
2023/02/10 08:34:05;;;;;;;115.87;48.27;;;;;;;;;;5014991;28;20252;-68
2023/02/10 08:36:31;;;;;;;119.30;46.07;;;;;;;;;;5016667;28;20721;-67
2023/02/10 08:38:56;;;;;;;119.40;47.97;;;;;;;;;;5023085;28;20193;-67
2023/02/10 08:41:22;;;;;;;121.33;47.67;;;;;;;;;;5027998;28;20265;-66
2023/02/10 08:43:47;;;;;;;106.90;46.43;;;;;;;;;;5027767;28;20204;-68
2023/02/10 08:46:13;;;;;;;111.27;45.87;;;;;;;;;;5039274;28;20198;-66
2023/02/10 08:48:38;;;;;;;122.07;48.30;;;;;;;;;;5028257;28;20925;-67
2023/02/10 08:51:11;;;;;;;114.07;47.80;;;;;;;;;;5027940;28;20216;-66
2023/02/10 08:53:37;;;;;;;120.00;47.90;;;;;;;;;;5027312;28;20235;-66
2023/02/10 08:56:08;;;;;;;121.00;48.77;;;;;;;;;;5025961;28;20261;-67
2023/02/10 08:58:34;;;;;;;118.47;47.13;;;;;;;;;;5028866;28;20547;-67
2023/02/10 09:00:59;;;;;;;118.17;47.53;;;;;;;;;;5027657;28;20344;-66
2023/02/10 09:03:26;;;;;;;126.77;48.87;;;;;;;;;;5028587;28;20704;-66
2023/02/10 09:05:52;;;;;;;109.80;47.23;;;;;;;;;;5026756;28;20190;-66
2023/02/10 09:08:18;;;;;;;116.57;48.90;;;;;;;;;;5026159;28;20206;-66
2023/02/10 09:10:44;;;;;;;113.73;46.53;;;;;;;;;;5022864;28;20193;-67
2023/02/10 09:13:10;;;;;;;105.43;46.20;;;;;;;;;;5045897;28;20196;-67
2023/02/10 09:15:40;;;;;;;117.27;47.60;;;;;;;;;;5039832;28;20189;-67
2023/02/10 09:18:07;;;;;;;114.90;47.80;;;;;;;;;;5030478;28;20607;-67
2023/02/10 09:20:33;;;;;;;111.37;45.73;;;;;;;;;;5035492;28;20216;-66
2023/02/10 09:22:59;;;;;;;112.10;47.23;;;;;;;;;;5043128;28;20213;-67
2023/02/10 09:25:24;;;;;;;105.87;45.80;;;;;;;;;;5043364;28;20661;-67
2023/02/10 09:27:54;;;;;;;108.07;46.93;;;;;;;;;;5042339;28;20206;-67
2023/02/10 09:30:20;;;;;;;89.93;43.67;;;;;;;;;;5040915;28;20209;-67
2023/02/10 09:32:45;;;;;;;94.90;42.80;;;;;;;;;;5037654;28;20229;-67
2023/02/10 09:35:11;;;;;;;96.23;43.13;;;;;;;;;;5039796;28;20193;-67
2023/02/10 09:37:36;;;;;;;85.83;39.57;;;;;;;;;;5042266;28;20186;-67
2023/02/10 09:40:01;;;;;;;93.33;42.33;;;;;;;;;;5040489;28;20190;-67
2023/02/10 09:43:25;;;;;;;85.50;40.13;;;;;;;;;;5032222;28;20265;-66
2023/02/10 09:46:05;;;;;;;88.43;41.20;;;;;;;;;;4995292;28;20323;-67
2023/02/10 09:48:46;;;;;;;89.23;39.97;;;;;;;;;;5039281;28;20204;-67
2023/02/10 09:51:26;;;;;;;81.97;38.70;;;;;;;;;;5043684;28;20185;-67
2023/02/10 09:53:52;;;;;;;89.03;40.87;;;;;;;;;;5047520;28;20247;-67
2023/02/10 09:56:20;;;;;;;83.90;39.40;;;;;;;;;;5047169;28;20260;-67
2023/02/10 09:58:52;;;;;;;85.40;37.50;;;;;;;;;;5047697;28;20220;-67
2023/02/10 10:01:29;;;;;;;80.07;37.27;;;;;;;;;;5043734;28;20262;-67
2023/02/10 10:04:01;;;;;;;78.33;35.47;;;;;;;;;;5040356;28;20185;-67
2023/02/10 10:06:32;;;;;;;67.20;33.70;;;;;;;;;;5044488;28;20182;-67
2023/02/10 10:09:09;;;;;;;77.87;35.63;;;;;;;;;;5047608;28;20713;-66
2023/02/10 10:11:44;;;;;;;77.40;34.30;;;;;;;;;;5046906;28;20224;-67
2023/02/10 10:14:29;;;;;;;72.37;34.57;;;;;;;;;;5047513;28;20192;-67
2023/02/10 10:17:28;;;;;;;70.90;33.67;;;;;;;;;;5041681;28;20254;-66
2023/02/10 10:20:21;;;;;;;68.13;32.40;;;;;;;;;;5032905;28;20562;-67
2023/02/10 10:23:30;;;;;;;63.17;30.10;;;;;;;;;;5028037;28;20182;-66
2023/02/10 10:26:13;;;;;;;65.40;32.33;;;;;;;;;;5025898;28;20198;-67
2023/02/10 10:29:06;;;;;;;57.93;30.97;;;;;;;;;;5034654;28;20206;-66
2023/02/10 10:31:38;;;;;;;63.50;30.10;;;;;;;;;;5030992;28;20571;-68
2023/02/10 10:34:06;;;;;;;62.37;30.50;;;;;;;;;;5031522;28;20284;-67
2023/02/10 10:36:38;;;;;;;60.07;29.40;;;;;;;;;;5034600;28;20272;-67
2023/02/10 10:39:24;;;;;;;57.70;29.20;;;;;;;;;;5038750;28;20252;-67
2023/02/10 10:41:50;;;;;;;53.17;27.60;;;;;;;;;;5033804;28;20187;-67
2023/02/10 10:44:17;;;;;;;53.90;27.90;;;;;;;;;;5041051;28;20182;-66
2023/02/10 10:46:55;;;;;;;52.10;27.47;;;;;;;;;;5039878;28;20186;-66
2023/02/10 10:49:21;;;;;;;50.93;26.70;;;;;;;;;;5038336;28;20182;-66
2023/02/10 10:51:47;;;;;;;52.80;27.60;;;;;;;;;;5043472;28;20219;-66
2023/02/10 10:54:16;;;;;;;55.30;26.77;;;;;;;;;;5035866;28;20761;-66
2023/02/10 10:56:52;;;;;;;53.93;25.70;;;;;;;;;;5029948;28;20595;-68
2023/02/10 10:59:41;;;;;;;52.10;27.63;;;;;;;;;;5041552;28;20275;-67
2023/02/10 11:02:17;;;;;;;52.63;27.27;;;;;;;;;;5025119;28;20601;-67
2023/02/10 11:04:44;;;;;;;48.53;26.87;;;;;;;;;;5034716;28;20657;-67
2023/02/10 11:07:22;;;;;;;55.20;27.30;;;;;;;;;;5045049;28;20201;-67
2023/02/10 11:09:53;;;;;;;67.37;28.13;;;;;;;;;;5031031;28;21029;-67
2023/02/10 11:12:29;;;;;;;50.17;24.60;;;;;;;;;;5035788;28;20660;-67
2023/02/10 11:14:57;;;;;;;56.20;25.93;;;;;;;;;;5045327;28;20200;-67
2023/02/10 11:17:41;;;;;;;51.93;25.40;;;;;;;;;;5032700;28;20201;-67
2023/02/10 11:20:13;;;;;;;50.17;24.57;;;;;;;;;;5032421;28;20193;-67
2023/02/10 11:22:39;;;;;;;44.13;23.43;;;;;;;;;;5040992;28;20186;-67
2023/02/10 11:25:38;;;;;;;42.63;22.83;;;;;;;;;;5032013;28;20193;-67
2023/02/10 11:28:07;;;;;;;42.13;22.13;;;;;;;;;;5015885;28;20222;-67
2023/02/10 11:30:35;;;;;;;48.47;23.50;;;;;;;;;;5045819;28;20208;-67
2023/02/10 11:33:03;;;;;;;44.27;23.20;;;;;;;;;;5044106;28;20266;-67
2023/02/10 11:35:32;;;;;;;40.70;22.13;;;;;;;;;;5046844;28;20300;-66
2023/02/10 11:38:07;;;;;;;45.53;22.57;;;;;;;;;;5040909;28;20177;-66
2023/02/10 11:40:52;;;;;;;44.93;23.43;;;;;;;;;;5039624;28;20535;-67
2023/02/10 11:43:19;;;;;;;47.90;22.67;;;;;;;;;;5042203;28;20185;-67
2023/02/10 11:45:56;;;;;;;46.17;23.03;;;;;;;;;;5030909;28;20662;-67
2023/02/10 11:48:23;;;;;;;47.27;22.80;;;;;;;;;;5044119;28;20280;-67
2023/02/10 11:51:05;;;;;;;50.77;23.37;;;;;;;;;;5043233;28;20210;-67
2023/02/10 11:53:34;;;;;;;46.57;22.03;;;;;;;;;;5028751;28;20186;-67
2023/02/10 11:59:31;;;;;;;48.20;22.47;;;;;;;;;;5029397;28;20224;-65
2023/02/10 12:02:15;;;;;;;46.93;22.57;;;;;;;;;;5043970;28;20268;-66
2023/02/10 12:04:54;;;;;;;48.57;22.13;;;;;;;;;;5045005;28;20215;-67
2023/02/10 12:07:33;;;;;;;50.13;23.90;;;;;;;;;;5046139;28;20224;-66
2023/02/10 12:10:03;;;;;;;53.03;23.67;;;;;;;;;;5043597;28;20201;-67
2023/02/10 12:12:31;;;;;;;51.20;23.97;;;;;;;;;;5041298;28;20194;-67
2023/02/10 12:15:28;;;;;;;48.43;22.13;;;;;;;;;;5046055;28;20201;-66
2023/02/10 12:18:15;;;;;;;52.17;23.63;;;;;;;;;;5025411;28;20226;-66
2023/02/10 12:21:08;;;;;;;52.17;24.20;;;;;;;;;;5042859;28;20189;-66
2023/02/10 12:23:55;;;;;;;48.47;23.43;;;;;;;;;;5045116;28;20436;-66
2023/02/10 12:26:37;;;;;;;53.00;23.87;;;;;;;;;;5042407;28;20181;-67
2023/02/10 12:29:05;;;;;;;54.67;24.70;;;;;;;;;;5045905;28;20318;-67
2023/02/10 12:32:08;;;;;;;50.00;25.07;;;;;;;;;;5042723;28;20197;-67
2023/02/10 12:34:48;;;;;;;54.33;23.93;;;;;;;;;;5040844;28;20215;-67
2023/02/10 12:37:24;;;;;;;51.03;22.17;;;;;;;;;;5040677;28;20221;-67
2023/02/10 12:40:13;;;;;;;52.10;23.33;;;;;;;;;;5038832;28;20262;-67
2023/02/10 12:42:52;;;;;;;57.57;23.27;;;;;;;;;;5039450;28;20190;-67
2023/02/10 12:45:35;;;;;;;57.23;23.10;;;;;;;;;;5041620;28;20213;-67
2023/02/10 12:48:04;;;;;;;53.70;23.17;;;;;;;;;;5042825;28;20767;-67
2023/02/10 12:50:51;;;;;;;50.80;23.57;;;;;;;;;;5041305;28;20193;-67
2023/02/10 12:53:28;;;;;;;59.33;24.83;;;;;;;;;;5038470;28;20606;-67
2023/02/10 12:56:17;;;;;;;60.87;25.10;;;;;;;;;;5045592;28;20212;-67
2023/02/10 12:58:47;;;;;;;56.37;24.17;;;;;;;;;;5042197;28;20581;-66
2023/02/10 13:01:43;;;;;;;49.83;22.93;;;;;;;;;;5037888;28;20205;-66
2023/02/10 13:04:19;;;;;;;54.33;22.57;;;;;;;;;;5038334;28;20451;-66
2023/02/10 13:07:16;;;;;;;50.37;22.83;;;;;;;;;;5038257;28;20599;-66
2023/02/10 13:09:59;;;;;;;52.57;23.30;;;;;;;;;;5036946;28;20201;-66
2023/02/10 13:12:28;;;;;;;52.47;23.03;;;;;;;;;;5038426;28;20189;-67
2023/02/10 13:15:12;;;;;;;47.10;21.20;;;;;;;;;;5043486;28;20523;-66
2023/02/10 13:17:46;;;;;;;50.10;22.63;;;;;;;;;;5021755;28;20203;-66
2023/02/10 13:20:23;;;;;;;50.63;22.27;;;;;;;;;;5043492;28;20196;-68
2023/02/10 13:23:06;;;;;;;53.85;21.08;;;;;;;;;;5025599;28;20201;-66
2023/02/10 13:25:55;;;;;;;48.43;21.47;;;;;;;;;;5036287;28;20806;-66
2023/02/10 13:28:36;;;;;;;59.80;24.50;;;;;;;;;;5040385;28;20225;-66
2023/02/10 13:31:14;;;;;;;52.13;24.30;;;;;;;;;;5045441;28;20198;-65
2023/02/10 13:34:16;;;;;;;50.92;23.58;;;;;;;;;;5040144;28;20197;-66
2023/02/10 13:36:47;;;;;;;55.87;25.13;;;;;;;;;;5037705;28;20978;-66
2023/02/10 13:39:20;;;;;;;59.55;26.45;;;;;;;;;;5037632;28;20246;-67
2023/02/10 13:41:50;;;;;;;61.80;25.50;;;;;;;;;;5026002;28;20217;-66
2023/02/10 13:44:27;;;;;;;64.17;26.93;;;;;;;;;;5030617;28;20197;-67
2023/02/10 13:47:11;;;;;;;65.40;27.33;;;;;;;;;;5014486;28;20195;-67
2023/02/10 13:49:52;;;;;;;65.82;26.50;;;;;;;;;;5038248;28;20181;-67
2023/02/10 13:52:23;;;;;;;61.20;26.85;;;;;;;;;;5031454;28;20515;-67
2023/02/10 13:55:04;;;;;;;53.38;23.88;;;;;;;;;;5043557;28;20505;-66
2023/02/10 13:57:35;;;;;;;58.05;25.65;;;;;;;;;;5022620;28;20205;-66
2023/02/10 14:00:25;;;;;;;60.35;24.45;;;;;;;;;;5039171;28;20209;-66
2023/02/10 14:03:19;;;;;;;62.10;25.23;;;;;;;;;;5036967;28;20197;-66
2023/02/10 14:05:58;;;;;;;58.27;24.63;;;;;;;;;;5028858;28;20234;-66
2023/02/10 14:08:37;;;;;;;54.05;24.73;;;;;;;;;;5022359;28;20267;-66
2023/02/10 14:11:25;;;;;;;60.17;24.58;;;;;;;;;;5047171;28;20189;-66
2023/02/10 14:14:00;;;;;;;57.33;24.67;;;;;;;;;;5025795;28;20604;-66
2023/02/10 14:16:35;;;;;;;65.28;25.08;;;;;;;;;;5033612;28;20206;-66
2023/02/10 14:19:05;;;;;;;57.55;24.20;;;;;;;;;;5031844;28;20684;-66
2023/02/10 14:21:39;;;;;;;50.50;21.80;;;;;;;;;;5031112;28;20787;-66
2023/02/10 14:24:13;;;;;;;48.15;20.60;;;;;;;;;;5017084;28;20548;-66
2023/02/10 14:26:43;;;;;;;45.65;18.83;;;;;;;;;;5020559;28;20202;-66
2023/02/10 14:29:14;;;;;;;50.35;19.08;;;;;;;;;;5036235;28;20684;-66
2023/02/10 14:31:41;;;;;;;47.55;18.95;;;;;;;;;;5024458;28;20623;-66
2023/02/10 14:34:25;;;;;;;44.80;18.60;;;;;;;;;;5030798;28;20232;-66
2023/02/10 14:36:54;;;;;;;44.67;18.13;;;;;;;;;;5024579;28;20226;-66
2023/02/10 14:39:22;;;;;;;46.08;17.88;;;;;;;;;;5028064;28;20240;-66